Destinations Palma De Mallorca Airport

Palma De Mallorca Airport (LEPA / PMI)

Flights to Palma De Mallorca Airport

Flight number From ETE Dispatch
SPY-2310 EGFF Cardiff International Airport 02:35
SPY-2448 EGPH Edinburgh Airport 03:00

Flights from Palma De Mallorca Airport

Flight number To ETE Dispatch
SPY-2311 EGFF Cardiff International Airport 02:35
SPY-2449 EGPH Edinburgh Airport 03:00
About

Palma De Mallorca Airport facts

Palma De Mallorca Airport is located in Palma de Mallorca at an elevation of 8.2 meters or 27 feet.

Currently, Speedy Airlines serves 4 flights to and from Palma De Mallorca Airport.

Detailed airport info

Route map

Weather

Current weather

METAR

METAR

Metar data retrieved Sunday, 21 July 2024 at 18:55 UTC

LEPA 211830Z 06016KT 9999 FEW035 26/15 Q1013 NOSIG
Wind Temperature
16 kt 26c